sensor_id;sensor_type;location;lat;lon;timestamp;pressure;altitude;pressure_sealevel;temperature;humidity
33506;BME280;19843;51.040;13.782;2023-11-18T00:01:25;100936.63;;;5.25;86.66
33506;BME280;19843;51.040;13.782;2023-11-18T00:03:52;100956.34;;;5.19;87.30
33506;BME280;19843;51.040;13.782;2023-11-18T00:06:23;100949.38;;;5.21;86.34
33506;BME280;19843;51.040;13.782;2023-11-18T00:08:50;100954.88;;;5.26;86.57
33506;BME280;19843;51.040;13.782;2023-11-18T00:11:18;100956.28;;;5.53;85.43
33506;BME280;19843;51.040;13.782;2023-11-18T00:13:45;100959.69;;;5.16;87.23
33506;BME280;19843;51.040;13.782;2023-11-18T00:16:13;100972.88;;;5.29;87.61
33506;BME280;19843;51.040;13.782;2023-11-18T00:18:42;100966.72;;;5.03;88.48
33506;BME280;19843;51.040;13.782;2023-11-18T00:21:10;100971.13;;;5.09;89.17
33506;BME280;19843;51.040;13.782;2023-11-18T00:23:39;100976.09;;;5.07;88.47
33506;BME280;19843;51.040;13.782;2023-11-18T00:26:07;100986.66;;;5.05;87.89
33506;BME280;19843;51.040;13.782;2023-11-18T00:28:35;100994.44;;;4.98;88.38
33506;BME280;19843;51.040;13.782;2023-11-18T00:31:02;100995.50;;;5.02;88.87
33506;BME280;19843;51.040;13.782;2023-11-18T00:33:31;100995.63;;;4.86;87.96
33506;BME280;19843;51.040;13.782;2023-11-18T00:35:59;100992.53;;;4.93;89.28
33506;BME280;19843;51.040;13.782;2023-11-18T00:38:27;100995.50;;;5.02;89.04
33506;BME280;19843;51.040;13.782;2023-11-18T00:40:55;101000.38;;;4.81;88.50
33506;BME280;19843;51.040;13.782;2023-11-18T00:43:23;101000.34;;;4.86;89.24
33506;BME280;19843;51.040;13.782;2023-11-18T00:45:51;101002.00;;;4.87;87.98
33506;BME280;19843;51.040;13.782;2023-11-18T00:48:18;101007.66;;;5.06;87.46
33506;BME280;19843;51.040;13.782;2023-11-18T00:50:46;101012.56;;;4.80;87.90
33506;BME280;19843;51.040;13.782;2023-11-18T00:53:13;101009.50;;;4.81;87.66
33506;BME280;19843;51.040;13.782;2023-11-18T00:55:41;101006.78;;;4.76;88.24
33506;BME280;19843;51.040;13.782;2023-11-18T00:58:10;101010.19;;;4.63;87.95
33506;BME280;19843;51.040;13.782;2023-11-18T01:00:37;101012.38;;;4.66;88.37
33506;BME280;19843;51.040;13.782;2023-11-18T01:03:05;101015.34;;;4.80;88.62
33506;BME280;19843;51.040;13.782;2023-11-18T01:05:32;101012.31;;;4.76;87.95
33506;BME280;19843;51.040;13.782;2023-11-18T01:08:01;101014.25;;;4.76;87.97
33506;BME280;19843;51.040;13.782;2023-11-18T01:10:29;101020.34;;;4.73;88.52
33506;BME280;19843;51.040;13.782;2023-11-18T01:12:57;101017.38;;;4.64;89.24
33506;BME280;19843;51.040;13.782;2023-11-18T01:15:26;101029.28;;;4.59;89.93
33506;BME280;19843;51.040;13.782;2023-11-18T01:17:53;101031.09;;;4.79;88.71
33506;BME280;19843;51.040;13.782;2023-11-18T01:20:21;101020.91;;;4.70;89.66
33506;BME280;19843;51.040;13.782;2023-11-18T01:22:49;101025.94;;;4.62;89.48
33506;BME280;19843;51.040;13.782;2023-11-18T01:25:16;101022.03;;;4.69;89.68
33506;BME280;19843;51.040;13.782;2023-11-18T01:27:45;101028.34;;;4.74;89.16
33506;BME280;19843;51.040;13.782;2023-11-18T01:30:14;101032.25;;;4.73;89.33
33506;BME280;19843;51.040;13.782;2023-11-18T01:32:43;101033.06;;;4.74;89.22
33506;BME280;19843;51.040;13.782;2023-11-18T01:35:11;101036.63;;;4.84;88.59
33506;BME280;19843;51.040;13.782;2023-11-18T01:37:39;101038.34;;;4.75;88.71
33506;BME280;19843;51.040;13.782;2023-11-18T01:40:07;101047.69;;;4.79;89.06
33506;BME280;19843;51.040;13.782;2023-11-18T01:42:35;101041.38;;;4.74;88.76
33506;BME280;19843;51.040;13.782;2023-11-18T01:45:04;101040.50;;;4.78;88.58
33506;BME280;19843;51.040;13.782;2023-11-18T01:47:32;101048.31;;;4.71;88.61
33506;BME280;19843;51.040;13.782;2023-11-18T01:50:02;101046.09;;;4.68;88.93
33506;BME280;19843;51.040;13.782;2023-11-18T01:52:32;101048.09;;;4.62;88.36
33506;BME280;19843;51.040;13.782;2023-11-18T01:55:00;101055.78;;;4.71;88.44
33506;BME280;19843;51.040;13.782;2023-11-18T01:57:30;101061.47;;;4.90;87.62
33506;BME280;19843;51.040;13.782;2023-11-18T01:59:57;101060.66;;;4.84;87.79
33506;BME280;19843;51.040;13.782;2023-11-18T02:02:25;101061.59;;;4.69;88.08
33506;BME280;19843;51.040;13.782;2023-11-18T02:04:53;101060.66;;;4.84;87.74
33506;BME280;19843;51.040;13.782;2023-11-18T02:07:23;101051.31;;;4.80;88.07
33506;BME280;19843;51.040;13.782;2023-11-18T02:09:50;101066.88;;;4.66;89.10
33506;BME280;19843;51.040;13.782;2023-11-18T02:12:23;101063.66;;;4.93;87.47
33506;BME280;19843;51.040;13.782;2023-11-18T02:14:51;101061.63;;;4.64;88.64
33506;BME280;19843;51.040;13.782;2023-11-18T02:17:21;101076.53;;;4.68;88.57
33506;BME280;19843;51.040;13.782;2023-11-18T02:19:51;101067.94;;;4.75;88.91
33506;BME280;19843;51.040;13.782;2023-11-18T02:22:19;101074.38;;;4.55;89.96
33506;BME280;19843;51.040;13.782;2023-11-18T02:24:49;101068.81;;;4.60;89.83
33506;BME280;19843;51.040;13.782;2023-11-18T02:27:18;101083.16;;;4.72;88.73
33506;BME280;19843;51.040;13.782;2023-11-18T02:29:48;101075.69;;;4.73;89.03
33506;BME280;19843;51.040;13.782;2023-11-18T02:32:20;101086.94;;;4.86;87.76
33506;BME280;19843;51.040;13.782;2023-11-18T02:34:56;101084.03;;;5.07;88.25
33506;BME280;19843;51.040;13.782;2023-11-18T02:37:26;101080.03;;;4.89;87.59
33506;BME280;19843;51.040;13.782;2023-11-18T02:40:00;101078.13;;;4.79;88.77
33506;BME280;19843;51.040;13.782;2023-11-18T02:42:32;101082.78;;;4.89;88.77
33506;BME280;19843;51.040;13.782;2023-11-18T02:45:01;101082.31;;;4.72;90.21
33506;BME280;19843;51.040;13.782;2023-11-18T02:47:29;101083.88;;;4.88;88.94
33506;BME280;19843;51.040;13.782;2023-11-18T02:49:57;101079.16;;;4.88;88.92
33506;BME280;19843;51.040;13.782;2023-11-18T02:52:33;101078.19;;;4.69;89.67
33506;BME280;19843;51.040;13.782;2023-11-18T02:55:00;101080.88;;;4.84;89.51
33506;BME280;19843;51.040;13.782;2023-11-18T02:57:29;101086.66;;;4.88;89.03
33506;BME280;19843;51.040;13.782;2023-11-18T02:59:58;101081.81;;;4.59;89.71
33506;BME280;19843;51.040;13.782;2023-11-18T03:02:26;101088.53;;;4.98;88.33
33506;BME280;19843;51.040;13.782;2023-11-18T03:04:57;101089.00;;;4.66;90.27
33506;BME280;19843;51.040;13.782;2023-11-18T03:07:24;101097.38;;;4.45;90.45
33506;BME280;19843;51.040;13.782;2023-11-18T03:09:53;101091.03;;;4.45;91.30
33506;BME280;19843;51.040;13.782;2023-11-18T03:12:23;101088.25;;;4.45;91.44
33506;BME280;19843;51.040;13.782;2023-11-18T03:14:54;101087.44;;;4.44;91.35
33506;BME280;19843;51.040;13.782;2023-11-18T03:17:23;101088.84;;;4.31;92.42
33506;BME280;19843;51.040;13.782;2023-11-18T03:19:51;101086.19;;;4.76;90.59
33506;BME280;19843;51.040;13.782;2023-11-18T03:22:18;101094.38;;;4.42;91.50
33506;BME280;19843;51.040;13.782;2023-11-18T03:24:46;101088.44;;;4.63;90.66
33506;BME280;19843;51.040;13.782;2023-11-18T03:27:13;101094.81;;;4.59;91.84
33506;BME280;19843;51.040;13.782;2023-11-18T03:29:41;101098.22;;;4.41;91.88
33506;BME280;19843;51.040;13.782;2023-11-18T03:32:12;101096.84;;;4.43;93.42
33506;BME280;19843;51.040;13.782;2023-11-18T03:34:41;101095.19;;;4.42;92.88
33506;BME280;19843;51.040;13.782;2023-11-18T03:37:10;101097.09;;;4.52;93.05
33506;BME280;19843;51.040;13.782;2023-11-18T03:39:37;101101.28;;;4.39;92.40
33506;BME280;19843;51.040;13.782;2023-11-18T03:42:05;101103.72;;;4.46;92.91
33506;BME280;19843;51.040;13.782;2023-11-18T03:44:32;101112.00;;;4.51;92.21
33506;BME280;19843;51.040;13.782;2023-11-18T03:47:00;101112.53;;;4.58;92.10
33506;BME280;19843;51.040;13.782;2023-11-18T03:49:29;101116.00;;;4.84;91.48
33506;BME280;19843;51.040;13.782;2023-11-18T03:51:59;101115.84;;;4.60;92.05
33506;BME280;19843;51.040;13.782;2023-11-18T03:54:27;101119.22;;;4.52;92.52
33506;BME280;19843;51.040;13.782;2023-11-18T03:56:54;101113.31;;;4.69;92.03
33506;BME280;19843;51.040;13.782;2023-11-18T03:59:22;101112.34;;;4.39;93.82
33506;BME280;19843;51.040;13.782;2023-11-18T04:01:49;101108.03;;;4.72;92.12
33506;BME280;19843;51.040;13.782;2023-11-18T04:04:17;101108.16;;;4.52;92.58
33506;BME280;19843;51.040;13.782;2023-11-18T04:06:45;101109.25;;;4.56;92.03
33506;BME280;19843;51.040;13.782;2023-11-18T04:09:14;101104.22;;;4.63;92.43
33506;BME280;19843;51.040;13.782;2023-11-18T04:11:42;101106.75;;;4.54;92.66
33506;BME280;19843;51.040;13.782;2023-11-18T04:14:11;101111.75;;;4.47;93.18
33506;BME280;19843;51.040;13.782;2023-11-18T04:16:39;101105.00;;;4.74;91.60
33506;BME280;19843;51.040;13.782;2023-11-18T04:19:06;101111.66;;;4.68;91.57
33506;BME280;19843;51.040;13.782;2023-11-18T04:21:34;101120.31;;;4.51;91.97
33506;BME280;19843;51.040;13.782;2023-11-18T04:24:01;101110.94;;;4.47;92.22
33506;BME280;19843;51.040;13.782;2023-11-18T04:26:30;101116.72;;;4.45;92.43
33506;BME280;19843;51.040;13.782;2023-11-18T04:28:58;101116.50;;;4.31;93.49
33506;BME280;19843;51.040;13.782;2023-11-18T04:31:26;101120.28;;;4.61;93.53
33506;BME280;19843;51.040;13.782;2023-11-18T04:33:53;101123.50;;;4.78;90.86
33506;BME280;19843;51.040;13.782;2023-11-18T04:36:22;101124.84;;;4.86;90.49
33506;BME280;19843;51.040;13.782;2023-11-18T04:38:49;101132.06;;;4.82;89.96
33506;BME280;19843;51.040;13.782;2023-11-18T04:41:17;101127.44;;;4.67;89.91
33506;BME280;19843;51.040;13.782;2023-11-18T04:43:46;101124.84;;;4.86;90.23
33506;BME280;19843;51.040;13.782;2023-11-18T04:46:14;101124.88;;;4.81;90.32
33506;BME280;19843;51.040;13.782;2023-11-18T04:48:42;101122.56;;;4.98;89.03
33506;BME280;19843;51.040;13.782;2023-11-18T04:51:10;101135.13;;;4.80;90.08
33506;BME280;19843;51.040;13.782;2023-11-18T04:53:38;101127.50;;;4.57;91.21
33506;BME280;19843;51.040;13.782;2023-11-18T04:56:07;101133.31;;;4.45;92.16
33506;BME280;19843;51.040;13.782;2023-11-18T04:58:38;101133.06;;;4.47;92.02
33506;BME280;19843;51.040;13.782;2023-11-18T05:01:07;101146.25;;;4.65;90.92
33506;BME280;19843;51.040;13.782;2023-11-18T05:03:35;101140.69;;;4.75;90.04
33506;BME280;19843;51.040;13.782;2023-11-18T05:06:04;101126.88;;;4.70;91.23
33506;BME280;19843;51.040;13.782;2023-11-18T05:08:32;101136.84;;;4.66;90.50
33506;BME280;19843;51.040;13.782;2023-11-18T05:11:00;101129.41;;;4.61;91.12
33506;BME280;19843;51.040;13.782;2023-11-18T05:13:28;101143.81;;;4.53;91.58
33506;BME280;19843;51.040;13.782;2023-11-18T05:15:56;101144.66;;;4.49;91.95
33506;BME280;19843;51.040;13.782;2023-11-18T05:18:24;101139.50;;;4.86;90.75
33506;BME280;19843;51.040;13.782;2023-11-18T05:20:56;101146.22;;;4.75;90.86
33506;BME280;19843;51.040;13.782;2023-11-18T05:23:24;101140.97;;;4.69;91.77
33506;BME280;19843;51.040;13.782;2023-11-18T05:25:52;101152.81;;;4.79;91.88
33506;BME280;19843;51.040;13.782;2023-11-18T05:28:19;101140.72;;;4.65;91.49
33506;BME280;19843;51.040;13.782;2023-11-18T05:30:48;101144.78;;;4.83;90.58
33506;BME280;19843;51.040;13.782;2023-11-18T05:33:16;101141.47;;;4.86;91.25
33506;BME280;19843;51.040;13.782;2023-11-18T05:35:46;101142.38;;;4.66;92.07
33506;BME280;19843;51.040;13.782;2023-11-18T05:38:16;101141.25;;;4.72;91.13
33506;BME280;19843;51.040;13.782;2023-11-18T05:40:45;101147.34;;;4.69;91.28
33506;BME280;19843;51.040;13.782;2023-11-18T05:43:22;101146.47;;;4.74;92.12
33506;BME280;19843;51.040;13.782;2023-11-18T05:45:52;101151.09;;;4.88;90.35
33506;BME280;19843;51.040;13.782;2023-11-18T05:48:37;101152.78;;;4.90;91.30
33506;BME280;19843;51.040;13.782;2023-11-18T05:51:10;101158.00;;;4.96;89.52
33506;BME280;19843;51.040;13.782;2023-11-18T05:53:42;101157.88;;;4.62;92.13
33506;BME280;19843;51.040;13.782;2023-11-18T05:56:11;101161.16;;;4.69;92.28
33506;BME280;19843;51.040;13.782;2023-11-18T05:58:39;101151.56;;;4.51;93.06
33506;BME280;19843;51.040;13.782;2023-11-18T06:01:07;101154.25;;;4.72;93.95
33506;BME280;19843;51.040;13.782;2023-11-18T06:03:35;101152.63;;;4.66;94.44
33506;BME280;19843;51.040;13.782;2023-11-18T06:06:06;101153.94;;;4.78;93.55
33506;BME280;19843;51.040;13.782;2023-11-18T06:08:36;101156.84;;;4.48;94.45
33506;BME280;19843;51.040;13.782;2023-11-18T06:11:05;101162.28;;;4.68;93.13
33506;BME280;19843;51.040;13.782;2023-11-18T06:13:40;101168.69;;;4.58;93.95
33506;BME280;19843;51.040;13.782;2023-11-18T06:16:14;101163.16;;;4.53;93.97
33506;BME280;19843;51.040;13.782;2023-11-18T06:18:42;101176.72;;;4.50;94.09
33506;BME280;19843;51.040;13.782;2023-11-18T06:21:12;101168.16;;;4.41;94.67
33506;BME280;19843;51.040;13.782;2023-11-18T06:23:42;101181.19;;;4.35;95.35
33506;BME280;19843;51.040;13.782;2023-11-18T06:26:11;101182.97;;;4.81;93.69
33506;BME280;19843;51.040;13.782;2023-11-18T06:28:40;101184.97;;;4.65;94.37
33506;BME280;19843;51.040;13.782;2023-11-18T06:31:07;101188.28;;;4.67;95.08
33506;BME280;19843;51.040;13.782;2023-11-18T06:33:37;101182.81;;;4.57;94.55
33506;BME280;19843;51.040;13.782;2023-11-18T06:36:07;101183.06;;;4.50;95.61
33506;BME280;19843;51.040;13.782;2023-11-18T06:38:34;101184.34;;;4.83;95.33
33506;BME280;19843;51.040;13.782;2023-11-18T06:41:04;101183.66;;;4.47;97.82
33506;BME280;19843;51.040;13.782;2023-11-18T06:43:35;101187.50;;;4.46;98.24
33506;BME280;19843;51.040;13.782;2023-11-18T06:46:18;101191.94;;;4.52;98.72
33506;BME280;19843;51.040;13.782;2023-11-18T06:48:48;101191.13;;;4.52;98.30
33506;BME280;19843;51.040;13.782;2023-11-18T06:51:16;101193.34;;;4.40;99.47
33506;BME280;19843;51.040;13.782;2023-11-18T06:53:44;101193.59;;;4.53;98.64
33506;BME280;19843;51.040;13.782;2023-11-18T06:56:12;101190.81;;;4.53;98.88
33506;BME280;19843;51.040;13.782;2023-11-18T06:58:41;101202.94;;;4.68;98.83
33506;BME280;19843;51.040;13.782;2023-11-18T07:01:09;101200.50;;;4.51;99.47
33506;BME280;19843;51.040;13.782;2023-11-18T07:03:36;101211.28;;;4.57;98.25
33506;BME280;19843;51.040;13.782;2023-11-18T07:06:05;101193.81;;;4.72;97.95
33506;BME280;19843;51.040;13.782;2023-11-18T07:08:32;101203.78;;;4.68;97.86
33506;BME280;19843;51.040;13.782;2023-11-18T07:11:01;101203.19;;;4.76;97.00
33506;BME280;19843;51.040;13.782;2023-11-18T07:13:30;101207.63;;;4.72;97.60
33506;BME280;19843;51.040;13.782;2023-11-18T07:15:57;101209.31;;;4.68;96.56
33506;BME280;19843;51.040;13.782;2023-11-18T07:18:25;101220.38;;;4.63;97.86
33506;BME280;19843;51.040;13.782;2023-11-18T07:21:00;101212.06;;;4.68;98.30
33506;BME280;19843;51.040;13.782;2023-11-18T07:23:29;101218.16;;;4.75;96.98
33506;BME280;19843;51.040;13.782;2023-11-18T07:25:57;101215.78;;;5.03;94.89
33506;BME280;19843;51.040;13.782;2023-11-18T07:28:25;101217.56;;;4.78;94.93
33506;BME280;19843;51.040;13.782;2023-11-18T07:30:54;101218.75;;;4.52;96.21
33506;BME280;19843;51.040;13.782;2023-11-18T07:33:22;101209.84;;;4.65;96.12
33506;BME280;19843;51.040;13.782;2023-11-18T07:35:50;101223.03;;;4.99;93.68
33506;BME280;19843;51.040;13.782;2023-11-18T07:38:18;101208.72;;;4.81;94.55
33506;BME280;19843;51.040;13.782;2023-11-18T07:40:46;101216.25;;;4.50;96.53
33506;BME280;19843;51.040;13.782;2023-11-18T07:43:14;101220.41;;;4.53;97.61
33506;BME280;19843;51.040;13.782;2023-11-18T07:45:42;101217.66;;;4.48;98.31
33506;BME280;19843;51.040;13.782;2023-11-18T07:48:12;101214.91;;;4.43;97.76
33506;BME280;19843;51.040;13.782;2023-11-18T07:50:43;101221.75;;;4.76;97.22
33506;BME280;19843;51.040;13.782;2023-11-18T07:53:11;101214.72;;;4.94;95.99
33506;BME280;19843;51.040;13.782;2023-11-18T07:55:39;101217.59;;;4.73;95.99
33506;BME280;19843;51.040;13.782;2023-11-18T07:58:07;101220.84;;;4.91;96.62
33506;BME280;19843;51.040;13.782;2023-11-18T08:00:37;101229.19;;;4.80;96.74
33506;BME280;19843;51.040;13.782;2023-11-18T08:03:05;101245.41;;;5.02;95.61
33506;BME280;19843;51.040;13.782;2023-11-18T08:05:39;101233.31;;;4.83;95.76
33506;BME280;19843;51.040;13.782;2023-11-18T08:08:07;101245.03;;;5.24;93.97
33506;BME280;19843;51.040;13.782;2023-11-18T08:10:37;101249.91;;;5.48;92.69
33506;BME280;19843;51.040;13.782;2023-11-18T08:13:06;101252.41;;;4.79;94.07
33506;BME280;19843;51.040;13.782;2023-11-18T08:15:34;101262.53;;;5.14;92.71
33506;BME280;19843;51.040;13.782;2023-11-18T08:18:02;101253.94;;;5.16;93.45
33506;BME280;19843;51.040;13.782;2023-11-18T08:20:30;101259.59;;;4.91;94.64
33506;BME280;19843;51.040;13.782;2023-11-18T08:22:59;101250.13;;;5.56;92.12
33506;BME280;19843;51.040;13.782;2023-11-18T08:25:27;101249.66;;;5.44;91.90
33506;BME280;19843;51.040;13.782;2023-11-18T08:27:54;101258.59;;;5.26;94.05
33506;BME280;19843;51.040;13.782;2023-11-18T08:30:22;101275.69;;;5.43;92.74
33506;BME280;19843;51.040;13.782;2023-11-18T08:32:50;101273.31;;;5.16;92.00
33506;BME280;19843;51.040;13.782;2023-11-18T08:35:19;101273.91;;;5.08;93.38
33506;BME280;19843;51.040;13.782;2023-11-18T08:37:47;101283.41;;;5.51;93.07
33506;BME280;19843;51.040;13.782;2023-11-18T08:40:16;101283.00;;;5.19;93.16
33506;BME280;19843;51.040;13.782;2023-11-18T08:42:49;101287.47;;;5.09;93.69
33506;BME280;19843;51.040;13.782;2023-11-18T08:45:18;101289.06;;;5.26;92.32
33506;BME280;19843;51.040;13.782;2023-11-18T08:47:48;101289.63;;;5.23;93.27
33506;BME280;19843;51.040;13.782;2023-11-18T08:50:16;101291.59;;;5.22;92.07
33506;BME280;19843;51.040;13.782;2023-11-18T08:52:45;101290.53;;;5.62;90.75
33506;BME280;19843;51.040;13.782;2023-11-18T08:55:15;101288.53;;;6.18;88.63
33506;BME280;19843;51.040;13.782;2023-11-18T08:57:48;101289.53;;;6.32;87.80
33506;BME280;19843;51.040;13.782;2023-11-18T09:00:25;101292.78;;;6.39;88.90
33506;BME280;19843;51.040;13.782;2023-11-18T09:03:10;101292.22;;;6.03;89.12
33506;BME280;19843;51.040;13.782;2023-11-18T09:05:44;101292.81;;;6.00;88.05
33506;BME280;19843;51.040;13.782;2023-11-18T09:08:27;101290.69;;;6.21;88.87
33506;BME280;19843;51.040;13.782;2023-11-18T09:10:58;101304.53;;;6.26;87.32
33506;BME280;19843;51.040;13.782;2023-11-18T09:13:28;101300.41;;;5.79;87.89
33506;BME280;19843;51.040;13.782;2023-11-18T09:15:56;101306.78;;;5.74;87.81
33506;BME280;19843;51.040;13.782;2023-11-18T09:18:25;101307.72;;;6.09;90.15
33506;BME280;19843;51.040;13.782;2023-11-18T09:20:53;101296.66;;;6.38;85.33
33506;BME280;19843;51.040;13.782;2023-11-18T09:23:21;101299.16;;;6.05;86.79
33506;BME280;19843;51.040;13.782;2023-11-18T09:25:51;101310.84;;;6.31;85.17
33506;BME280;19843;51.040;13.782;2023-11-18T09:28:23;101312.06;;;6.20;85.69
33506;BME280;19843;51.040;13.782;2023-11-18T09:30:52;101312.16;;;6.10;87.42
33506;BME280;19843;51.040;13.782;2023-11-18T09:33:25;101305.22;;;6.07;87.19
33506;BME280;19843;51.040;13.782;2023-11-18T09:35:56;101312.72;;;6.07;86.68
33506;BME280;19843;51.040;13.782;2023-11-18T09:38:26;101301.47;;;6.27;85.62
33506;BME280;19843;51.040;13.782;2023-11-18T09:40:56;101287.91;;;6.55;87.42
33506;BME280;19843;51.040;13.782;2023-11-18T09:43:24;101292.84;;;5.95;86.22
33506;BME280;19843;51.040;13.782;2023-11-18T09:45:56;101301.09;;;6.68;84.04
33506;BME280;19843;51.040;13.782;2023-11-18T09:48:32;101294.78;;;6.86;83.45
33506;BME280;19843;51.040;13.782;2023-11-18T09:51:08;101278.38;;;6.66;84.46
33506;BME280;19843;51.040;13.782;2023-11-18T09:53:37;101289.75;;;6.64;84.72
33506;BME280;19843;51.040;13.782;2023-11-18T09:56:07;101289.38;;;6.47;85.82
33506;BME280;19843;51.040;13.782;2023-11-18T09:58:49;101295.78;;;6.72;83.86
33506;BME280;19843;51.040;13.782;2023-11-18T10:01:26;101293.50;;;7.27;81.27
33506;BME280;19843;51.040;13.782;2023-11-18T10:03:55;101298.31;;;7.40;80.59
33506;BME280;19843;51.040;13.782;2023-11-18T10:06:25;101290.69;;;6.79;81.69
33506;BME280;19843;51.040;13.782;2023-11-18T10:08:55;101307.03;;;7.09;80.82
33506;BME280;19843;51.040;13.782;2023-11-18T10:11:23;101306.03;;;7.00;80.26
33506;BME280;19843;51.040;13.782;2023-11-18T10:13:50;101295.22;;;6.75;80.71
33506;BME280;19843;51.040;13.782;2023-11-18T10:16:18;101290.41;;;6.56;80.57
33506;BME280;19843;51.040;13.782;2023-11-18T10:18:47;101290.66;;;6.55;80.85
33506;BME280;19843;51.040;13.782;2023-11-18T10:21:34;101283.50;;;7.02;79.38
33506;BME280;19843;51.040;13.782;2023-11-18T10:24:06;101284.63;;;7.25;77.33
33506;BME280;19843;51.040;13.782;2023-11-18T10:26:42;101281.47;;;7.55;77.66
33506;BME280;19843;51.040;13.782;2023-11-18T10:29:11;101291.72;;;7.36;77.29
33506;BME280;19843;51.040;13.782;2023-11-18T10:31:40;101293.19;;;7.28;77.80
33506;BME280;19843;51.040;13.782;2023-11-18T10:34:13;101290.00;;;7.59;79.30
33506;BME280;19843;51.040;13.782;2023-11-18T10:36:59;101291.00;;;7.25;74.88
33506;BME280;19843;51.040;13.782;2023-11-18T10:39:29;101291.47;;;7.94;72.69
33506;BME280;19843;51.040;13.782;2023-11-18T10:42:01;101295.66;;;7.91;71.96
33506;BME280;19843;51.040;13.782;2023-11-18T10:44:29;101300.03;;;7.98;70.68
33506;BME280;19843;51.040;13.782;2023-11-18T10:46:58;101291.88;;;7.63;69.65
33506;BME280;19843;51.040;13.782;2023-11-18T10:49:28;101293.69;;;7.54;70.20
33506;BME280;19843;51.040;13.782;2023-11-18T10:52:04;101288.28;;;7.63;69.88
33506;BME280;19843;51.040;13.782;2023-11-18T10:54:35;101284.81;;;8.09;69.38
33506;BME280;19843;51.040;13.782;2023-11-18T10:57:04;101283.72;;;7.72;70.66
33506;BME280;19843;51.040;13.782;2023-11-18T10:59:34;101289.28;;;7.72;67.70
33506;BME280;19843;51.040;13.782;2023-11-18T11:02:17;101286.34;;;8.34;68.75
33506;BME280;19843;51.040;13.782;2023-11-18T11:04:49;101266.38;;;9.06;66.04
33506;BME280;19843;51.040;13.782;2023-11-18T11:07:17;101273.19;;;8.39;63.58
33506;BME280;19843;51.040;13.782;2023-11-18T11:09:46;101277.91;;;7.50;66.70
33506;BME280;19843;51.040;13.782;2023-11-18T11:12:16;101280.41;;;7.70;67.93
33506;BME280;19843;51.040;13.782;2023-11-18T11:14:50;101276.44;;;7.14;68.52
33506;BME280;19843;51.040;13.782;2023-11-18T11:17:23;101278.91;;;7.78;66.43
33506;BME280;19843;51.040;13.782;2023-11-18T11:20:04;101269.06;;;7.05;65.72
33506;BME280;19843;51.040;13.782;2023-11-18T11:22:51;101268.22;;;7.04;65.77
33506;BME280;19843;51.040;13.782;2023-11-18T11:25:33;101280.91;;;7.10;66.73
33506;BME280;19843;51.040;13.782;2023-11-18T11:28:13;101285.06;;;7.13;63.48
33506;BME280;19843;51.040;13.782;2023-11-18T11:30:45;101288.50;;;7.05;65.02
33506;BME280;19843;51.040;13.782;2023-11-18T11:33:21;101295.03;;;7.14;63.55
33506;BME280;19843;51.040;13.782;2023-11-18T11:35:55;101293.97;;;7.34;63.94
33506;BME280;19843;51.040;13.782;2023-11-18T11:38:24;101285.56;;;7.39;62.37
33506;BME280;19843;51.040;13.782;2023-11-18T11:40:54;101284.31;;;7.50;62.44
33506;BME280;19843;51.040;13.782;2023-11-18T11:43:22;101277.47;;;7.80;60.21
33506;BME280;19843;51.040;13.782;2023-11-18T11:45:54;101271.84;;;7.66;62.31
33506;BME280;19843;51.040;13.782;2023-11-18T11:48:24;101271.09;;;7.80;58.74
33506;BME280;19843;51.040;13.782;2023-11-18T11:51:02;101266.66;;;7.98;58.85
33506;BME280;19843;51.040;13.782;2023-11-18T11:53:34;101272.59;;;7.72;55.23
33506;BME280;19843;51.040;13.782;2023-11-18T11:56:06;101262.56;;;8.09;55.18
33506;BME280;19843;51.040;13.782;2023-11-18T11:58:41;101263.13;;;7.73;55.74
33506;BME280;19843;51.040;13.782;2023-11-18T12:01:21;101253.66;;;7.93;55.54
33506;BME280;19843;51.040;13.782;2023-11-18T12:03:52;101257.78;;;7.95;56.07
33506;BME280;19843;51.040;13.782;2023-11-18T12:06:26;101250.03;;;7.55;57.04
33506;BME280;19843;51.040;13.782;2023-11-18T12:08:54;101248.69;;;7.52;58.22
33506;BME280;19843;51.040;13.782;2023-11-18T12:11:22;101252.53;;;7.75;58.10
33506;BME280;19843;51.040;13.782;2023-11-18T12:14:00;101247.56;;;7.53;59.20
33506;BME280;19843;51.040;13.782;2023-11-18T12:16:58;101243.72;;;7.30;58.33
33506;BME280;19843;51.040;13.782;2023-11-18T12:19:31;101244.69;;;7.21;59.60
33506;BME280;19843;51.040;13.782;2023-11-18T12:22:04;101246.56;;;7.25;59.55
33506;BME280;19843;51.040;13.782;2023-11-18T12:24:39;101233.75;;;7.29;58.94
33506;BME280;19843;51.040;13.782;2023-11-18T12:27:09;101232.91;;;7.29;58.65
33506;BME280;19843;51.040;13.782;2023-11-18T12:29:42;101230.25;;;7.00;59.16
33506;BME280;19843;51.040;13.782;2023-11-18T12:32:11;101227.00;;;7.54;59.97
33506;BME280;19843;51.040;13.782;2023-11-18T12:34:49;101230.22;;;7.24;60.86
33506;BME280;19843;51.040;13.782;2023-11-18T12:37:39;101214.94;;;7.21;59.94
33506;BME280;19843;51.040;13.782;2023-11-18T12:40:53;101228.91;;;7.16;60.54
33506;BME280;19843;51.040;13.782;2023-11-18T12:43:43;101223.69;;;7.33;58.15
33506;BME280;19843;51.040;13.782;2023-11-18T12:46:40;101223.16;;;6.88;59.67
33506;BME280;19843;51.040;13.782;2023-11-18T12:49:16;101216.94;;;7.39;59.25
33506;BME280;19843;51.040;13.782;2023-11-18T12:51:50;101210.78;;;7.24;57.73
33506;BME280;19843;51.040;13.782;2023-11-18T12:54:20;101210.03;;;7.37;58.34
33506;BME280;19843;51.040;13.782;2023-11-18T12:56:51;101199.81;;;7.13;58.53
33506;BME280;19843;51.040;13.782;2023-11-18T12:59:20;101198.19;;;7.07;58.11
33506;BME280;19843;51.040;13.782;2023-11-18T13:01:48;101198.19;;;6.88;58.12
33506;BME280;19843;51.040;13.782;2023-11-18T13:04:20;101198.28;;;7.21;58.39
33506;BME280;19843;51.040;13.782;2023-11-18T13:06:48;101200.09;;;7.31;57.14